<?xml version="1.0" encoding="utf-8"?>
<gpx xmlns:xsi="http://www.w3.org/2001/XMLSchema-instance" xmlns:xsd="http://www.w3.org/2001/XMLSchema" version="1.1" creator="Shapelink.com" xmlns="http://www.topografix.com/GPX/1/1" xmlns:gpxtpx="http://www.garmin.com/xmlschemas/TrackPointExtension/v1">
  <metadata>
    <name>Övrigt 1.61 km, 2020-07-09</name>
    <desc></desc>
    <author><name>Marian Moron</name></author> 
    <time>2020-07-09T20:58:15Z</time>
  </metadata>
  <trk>
    <name>Övrigt 1.61 km, 2020-07-09</name>
    <trkseg>
      <trkpt lat="51.229923773751" lon="4.458755812131">
        <ele>0</ele>
        <time>2020-07-09T20:58:15Z</time>
      </trkpt>
      <trkpt lat="51.229893179816" lon="4.458845666099">
        <ele>0</ele>
        <time>2020-07-09T20:58:25Z</time>
      </trkpt>
      <trkpt lat="51.229919918077" lon="4.459014393746">
        <ele>0</ele>
        <time>2020-07-09T20:58:33Z</time>
      </trkpt>
      <trkpt lat="51.229954200048" lon="4.459045574414">
        <ele>0</ele>
        <time>2020-07-09T20:58:35Z</time>
      </trkpt>
      <trkpt lat="51.230108594646" lon="4.459186474153">
        <ele>0</ele>
        <time>2020-07-09T20:58:48Z</time>
      </trkpt>
      <trkpt lat="51.230423167353" lon="4.459420999715">
        <ele>0</ele>
        <time>2020-07-09T20:59:41Z</time>
      </trkpt>
      <trkpt lat="51.230438841506" lon="4.459450839279">
        <ele>0</ele>
        <time>2020-07-09T20:59:44Z</time>
      </trkpt>
      <trkpt lat="51.230483014119" lon="4.459566677137">
        <ele>0</ele>
        <time>2020-07-09T20:59:55Z</time>
      </trkpt>
      <trkpt lat="51.230542357971" lon="4.459647981567">
        <ele>0</ele>
        <time>2020-07-09T21:00:23Z</time>
      </trkpt>
      <trkpt lat="51.23060949699" lon="4.459797095568">
        <ele>0</ele>
        <time>2020-07-09T21:00:40Z</time>
      </trkpt>
      <trkpt lat="51.230596672683" lon="4.459835149394">
        <ele>0</ele>
        <time>2020-07-09T21:00:42Z</time>
      </trkpt>
      <trkpt lat="51.230607233877" lon="4.460149135368">
        <ele>0</ele>
        <time>2020-07-09T21:01:11Z</time>
      </trkpt>
      <trkpt lat="51.230640677658" lon="4.460705022976">
        <ele>0</ele>
        <time>2020-07-09T21:01:57Z</time>
      </trkpt>
      <trkpt lat="51.230519978298" lon="4.460829997105">
        <ele>0</ele>
        <time>2020-07-09T21:02:20Z</time>
      </trkpt>
      <trkpt lat="51.230077749254" lon="4.460996294001">
        <ele>0</ele>
        <time>2020-07-09T21:02:56Z</time>
      </trkpt>
      <trkpt lat="51.229763847099" lon="4.461022110253">
        <ele>0</ele>
        <time>2020-07-09T21:03:49Z</time>
      </trkpt>
      <trkpt lat="51.229546336794" lon="4.46162418213">
        <ele>0</ele>
        <time>2020-07-09T21:04:37Z</time>
      </trkpt>
      <trkpt lat="51.229437288275" lon="4.461664247612">
        <ele>3</ele>
        <time>2020-07-09T21:04:52Z</time>
      </trkpt>
      <trkpt lat="51.229092205452" lon="4.461799280021">
        <ele>2.8</ele>
        <time>2020-07-09T21:05:17Z</time>
      </trkpt>
      <trkpt lat="51.228691634451" lon="4.461846721575">
        <ele>0</ele>
        <time>2020-07-09T21:06:20Z</time>
      </trkpt>
      <trkpt lat="51.228522822985" lon="4.461388483102">
        <ele>12.2</ele>
        <time>2020-07-09T21:06:55Z</time>
      </trkpt>
      <trkpt lat="51.228325177783" lon="4.460765707932">
        <ele>4.2</ele>
        <time>2020-07-09T21:07:28Z</time>
      </trkpt>
      <trkpt lat="51.227976574562" lon="4.460602344701">
        <ele>0</ele>
        <time>2020-07-09T21:09:07Z</time>
      </trkpt>
      <trkpt lat="51.227821760869" lon="4.461185724941">
        <ele>0</ele>
        <time>2020-07-09T21:10:05Z</time>
      </trkpt>
      <trkpt lat="51.227815474444" lon="4.461287145931">
        <ele>0</ele>
        <time>2020-07-09T21:10:11Z</time>
      </trkpt>
      <trkpt lat="51.227873896287" lon="4.461457047044">
        <ele>0.2</ele>
        <time>2020-07-09T21:10:31Z</time>
      </trkpt>
      <trkpt lat="51.22789376139" lon="4.462186272344">
        <ele>1.2</ele>
        <time>2020-07-09T21:11:13Z</time>
      </trkpt>
      <trkpt lat="51.227907423887" lon="4.462900996957">
        <ele>0.2</ele>
        <time>2020-07-09T21:11:53Z</time>
      </trkpt>
      <trkpt lat="51.227789742011" lon="4.46293008215">
        <ele>0</ele>
        <time>2020-07-09T21:12:09Z</time>
      </trkpt>
      <trkpt lat="51.227648339358" lon="4.46263923022">
        <ele>0</ele>
        <time>2020-07-09T21:12:27Z</time>
      </trkpt>
      <trkpt lat="51.227477851512" lon="4.461989297694">
        <ele>0</ele>
        <time>2020-07-09T21:13:04Z</time>
      </trkpt>
      <trkpt lat="51.227388919553" lon="4.461696350289">
        <ele>0</ele>
        <time>2020-07-09T21:13:26Z</time>
      </trkpt>
      <trkpt lat="51.227308453313" lon="4.461634910962">
        <ele>0</ele>
        <time>2020-07-09T21:13:39Z</time>
      </trkpt>
      <trkpt lat="51.226919700791" lon="4.461760723281">
        <ele>0</ele>
        <time>2020-07-09T21:14:12Z</time>
      </trkpt>
      <trkpt lat="51.226852058858" lon="4.461603730294">
        <ele>0</ele>
        <time>2020-07-09T21:14:27Z</time>
      </trkpt>
      <trkpt lat="51.226785841848" lon="4.461421926883">
        <ele>0</ele>
        <time>2020-07-09T21:14:48Z</time>
      </trkpt>
      <trkpt lat="51.226567577172" lon="4.460786327406">
        <ele>0</ele>
        <time>2020-07-09T21:15:28Z</time>
      </trkpt>
      <trkpt lat="51.226441094301" lon="4.460088785688">
        <ele>0</ele>
        <time>2020-07-09T21:16:11Z</time>
      </trkpt>
      <trkpt lat="51.226357107663" lon="4.459973618382">
        <ele>0</ele>
        <time>2020-07-09T21:16:23Z</time>
      </trkpt>
      <trkpt lat="51.226279826545" lon="4.459695590759">
        <ele>0</ele>
        <time>2020-07-09T21:17:16Z</time>
      </trkpt>
      <trkpt lat="51.226279323631" lon="4.459582099833">
        <ele>0</ele>
        <time>2020-07-09T21:17:37Z</time>
      </trkpt>
      <trkpt lat="51.226522734007" lon="4.459414378014">
        <ele>2.2</ele>
        <time>2020-07-09T21:18:11Z</time>
      </trkpt>
      <trkpt lat="51.226957084065" lon="4.459227126368">
        <ele>9.2</ele>
        <time>2020-07-09T21:18:47Z</time>
      </trkpt>
      <trkpt lat="51.227197896052" lon="4.459093435063">
        <ele>14.6</ele>
        <time>2020-07-09T21:19:20Z</time>
      </trkpt>
      <trkpt lat="51.227576674113" lon="4.458850779058">
        <ele>29</ele>
        <time>2020-07-09T21:20:04Z</time>
      </trkpt>
      <trkpt lat="51.227807763096" lon="4.458717506848">
        <ele>25.8</ele>
        <time>2020-07-09T21:20:25Z</time>
      </trkpt>
      <trkpt lat="51.228232473969" lon="4.458452052075">
        <ele>14.8</ele>
        <time>2020-07-09T21:21:13Z</time>
      </trkpt>
      <trkpt lat="51.228557775508" lon="4.458109567641">
        <ele>4</ele>
        <time>2020-07-09T21:21:47Z</time>
      </trkpt>
      <trkpt lat="51.228594572049" lon="4.457878813934">
        <ele>1.2</ele>
        <time>2020-07-09T21:22:21Z</time>
      </trkpt>
      <trkpt lat="51.228596248429" lon="4.457934721207">
        <ele>0.6</ele>
        <time>2020-07-09T21:22:24Z</time>
      </trkpt>
      <trkpt lat="51.228690628623" lon="4.458165391095">
        <ele>0</ele>
        <time>2020-07-09T21:22:57Z</time>
      </trkpt>
      <trkpt lat="51.22886689998" lon="4.458157176833">
        <ele>7</ele>
        <time>2020-07-09T21:23:22Z</time>
      </trkpt>
      <trkpt lat="51.229302088228" lon="4.457995741439">
        <ele>15.4</ele>
        <time>2020-07-09T21:24:07Z</time>
      </trkpt>
      <trkpt lat="51.229432091497" lon="4.457963471124">
        <ele>19.6</ele>
        <time>2020-07-09T21:24:22Z</time>
      </trkpt>
      <trkpt lat="51.229565196069" lon="4.457949221894">
        <ele>11.8</ele>
        <time>2020-07-09T21:24:31Z</time>
      </trkpt>
    </trkseg>
  </trk>
</gpx>